In Rescue
 
Open Full Screen Window  High Contrast Mode
Wind Gusting 00 knots
10
July 22, 2019 11:47 PM CDT
Weather Information
Wind Direction
  300 °
Wind Speed
  10 kt (12 mph)
Wind Gust
  00 kt (0 mph)
Altimeter
30.14 in
Visibility
10 SM
Temperature
22° C
72° F
Dewpoint
11° C
52° F
Humidity
50%
Sky Condition
Overcast @ 5,500 ft
VFR

METAR KDYT 230447Z AUTO 30010KT 10SM OVC055 22/11 A3014 RMK AO2

FAA Disclaimer: The data displayed is for advisory purposes only and is not to be used for flight planning or operations.